createdAt,value
2017-07-30T00:01:30.140Z,64.80
2017-07-30T00:03:57.014Z,64.80
2017-07-30T00:06:23.878Z,64.30
2017-07-30T00:08:50.828Z,64.30
2017-07-30T00:11:17.820Z,64.40
2017-07-30T00:13:45.449Z,64.60
2017-07-30T00:16:12.391Z,64.60
2017-07-30T00:18:39.259Z,64.50
2017-07-30T00:21:06.201Z,64.50
2017-07-30T00:23:33.151Z,64.30
2017-07-30T00:26:00.131Z,64.80
2017-07-30T00:28:27.003Z,64.60
2017-07-30T00:30:53.877Z,64.30
2017-07-30T00:33:20.827Z,64.10
2017-07-30T00:35:47.712Z,64.70
2017-07-30T00:38:15.332Z,64.60
2017-07-30T00:40:42.255Z,64.60
2017-07-30T00:43:09.248Z,64.80
2017-07-30T00:45:36.196Z,65.10
2017-07-30T00:48:03.960Z,65.00
2017-07-30T00:50:31.583Z,64.90
2017-07-30T00:52:58.518Z,64.90
2017-07-30T00:55:25.374Z,65.20
2017-07-30T00:57:52.320Z,64.90
2017-07-30T01:00:19.476Z,65.30
2017-07-30T01:02:46.428Z,65.80
2017-07-30T01:05:13.296Z,66.10
2017-07-30T01:07:40.171Z,66.10
2017-07-30T01:10:07.127Z,66.20
2017-07-30T01:12:37.214Z,65.90
2017-07-30T01:15:04.327Z,65.80
2017-07-30T01:17:31.200Z,65.80
2017-07-30T01:19:58.162Z,66.00
2017-07-30T01:22:25.910Z,66.00
2017-07-30T01:24:52.823Z,66.00
2017-07-30T01:27:19.841Z,65.80
2017-07-30T01:29:46.697Z,66.10
2017-07-30T01:32:14.562Z,66.10
2017-07-30T01:34:41.463Z,66.50
2017-07-30T01:37:08.409Z,66.40
2017-07-30T01:39:35.274Z,66.70
2017-07-30T01:42:02.897Z,66.60
2017-07-30T01:44:29.843Z,66.60
2017-07-30T01:46:56.731Z,67.00
2017-07-30T01:49:24.416Z,66.90
2017-07-30T01:51:51.391Z,66.90
2017-07-30T01:54:18.318Z,66.80
2017-07-30T01:56:45.259Z,66.70
2017-07-30T01:59:12.245Z,66.70
2017-07-30T02:01:39.158Z,66.50
2017-07-30T02:04:06.046Z,66.20
2017-07-30T02:06:33.001Z,66.80
2017-07-30T02:09:00.623Z,67.70
2017-07-30T02:11:27.567Z,67.30
2017-07-30T02:13:54.499Z,67.90
2017-07-30T02:16:21.352Z,68.20
2017-07-30T02:18:48.216Z,68.20
2017-07-30T02:21:15.220Z,68.20
2017-07-30T02:23:42.164Z,68.10
2017-07-30T02:26:09.033Z,68.00
2017-07-30T02:28:36.019Z,67.70
2017-07-30T02:31:02.880Z,68.00
2017-07-30T02:33:30.573Z,67.60
2017-07-30T02:35:57.436Z,67.60
2017-07-30T02:38:24.291Z,67.90
2017-07-30T02:40:51.279Z,67.70
2017-07-30T02:43:18.954Z,69.00
2017-07-30T02:45:45.852Z,68.60
2017-07-30T02:48:12.770Z,68.80
2017-07-30T02:50:39.643Z,68.90
2017-07-30T02:53:06.567Z,69.00
2017-07-30T02:55:33.540Z,68.90
2017-07-30T02:58:00.388Z,69.20
2017-07-30T03:00:27.759Z,69.10
2017-07-30T03:02:54.699Z,69.00
2017-07-30T03:05:21.564Z,68.90
2017-07-30T03:07:48.429Z,69.20
2017-07-30T03:10:15.380Z,69.00
2017-07-30T03:12:42.259Z,69.00
2017-07-30T03:15:09.154Z,68.70
2017-07-30T03:17:36.103Z,68.50
2017-07-30T03:20:03.024Z,68.40
2017-07-30T03:22:29.884Z,68.20
2017-07-30T03:24:57.612Z,68.40
2017-07-30T03:27:24.492Z,68.40
2017-07-30T03:29:52.169Z,68.70
2017-07-30T03:32:19.155Z,68.60
2017-07-30T03:34:46.008Z,68.60
2017-07-30T03:37:12.951Z,69.40
2017-07-30T03:39:39.816Z,68.70
2017-07-30T03:42:06.696Z,69.10
2017-07-30T03:44:33.652Z,69.00
2017-07-30T03:47:00.523Z,68.90
2017-07-30T03:49:27.386Z,69.20
2017-07-30T03:51:54.319Z,69.10
2017-07-30T03:54:21.251Z,70.00
2017-07-30T03:56:48.128Z,70.00
2017-07-30T03:59:15.005Z,70.20
2017-07-30T04:01:42.678Z,69.70
2017-07-30T04:04:09.616Z,69.70
2017-07-30T04:06:36.497Z,69.60
2017-07-30T04:09:03.523Z,69.50
2017-07-30T04:11:30.405Z,69.20
2017-07-30T04:13:57.246Z,68.80
2017-07-30T04:16:24.200Z,68.30
2017-07-30T04:18:51.080Z,68.30
2017-07-30T04:21:18.688Z,68.30
2017-07-30T04:23:45.946Z,68.10
2017-07-30T04:26:17.774Z,67.90
2017-07-30T04:28:44.862Z,67.80
2017-07-30T04:31:11.736Z,67.90
2017-07-30T04:33:39.351Z,67.70
2017-07-30T04:36:06.307Z,67.70
2017-07-30T04:38:33.175Z,67.50
2017-07-30T04:41:00.039Z,67.00
2017-07-30T04:43:27.729Z,64.30
2017-07-30T04:45:54.614Z,64.20
2017-07-30T04:48:21.469Z,60.90
2017-07-30T04:50:48.455Z,56.80
2017-07-30T04:53:15.404Z,52.90
2017-07-30T04:55:42.253Z,51.30
2017-07-30T04:58:09.199Z,53.30
2017-07-30T05:00:36.068Z,54.60
2017-07-30T05:03:03.024Z,51.10
2017-07-30T05:05:29.975Z,48.80
2017-07-30T05:07:56.851Z,45.80
2017-07-30T05:10:24.529Z,40.00
2017-07-30T05:12:51.406Z,40.40
2017-07-30T05:15:18.353Z,38.00
2017-07-30T05:17:45.235Z,39.10
2017-07-30T05:20:12.111Z,39.80
2017-07-30T05:22:39.800Z,41.80
2017-07-30T05:25:06.817Z,41.80
2017-07-30T05:27:33.691Z,45.70
2017-07-30T05:30:00.547Z,49.60
2017-07-30T05:32:27.540Z,49.10
2017-07-30T05:34:54.394Z,47.50
2017-07-30T05:37:22.075Z,44.90
2017-07-30T05:39:49.000Z,44.20
2017-07-30T05:42:16.623Z,46.30
2017-07-30T05:44:43.558Z,46.30
2017-07-30T05:47:10.532Z,48.20
2017-07-30T05:49:37.490Z,48.50
2017-07-30T05:52:04.336Z,51.00
2017-07-30T05:54:31.214Z,50.90
2017-07-30T05:56:58.157Z,51.50
2017-07-30T05:59:25.027Z,51.90
2017-07-30T06:01:51.882Z,52.80
2017-07-30T06:04:18.826Z,53.10
2017-07-30T06:06:45.788Z,53.50
2017-07-30T06:09:12.684Z,53.50
2017-07-30T06:11:39.611Z,53.80
2017-07-30T06:14:07.309Z,54.20
2017-07-30T06:16:34.204Z,54.20
2017-07-30T06:19:01.184Z,54.00
2017-07-30T06:21:28.107Z,53.70
2017-07-30T06:23:55.772Z,55.00
2017-07-30T06:26:23.500Z,54.40
2017-07-30T06:28:50.361Z,54.00
2017-07-30T06:31:17.235Z,54.80
2017-07-30T06:33:44.943Z,55.00
2017-07-30T06:36:11.820Z,55.00
2017-07-30T06:38:38.687Z,54.90
2017-07-30T06:41:05.667Z,55.20
2017-07-30T06:43:32.599Z,55.70
2017-07-30T06:45:59.482Z,55.30
2017-07-30T06:48:26.433Z,55.70
2017-07-30T06:50:53.304Z,55.50
2017-07-30T06:53:20.181Z,56.20
2017-07-30T06:55:47.146Z,55.90
2017-07-30T06:58:14.040Z,55.60
2017-07-30T07:00:40.907Z,56.20
2017-07-30T07:03:08.625Z,56.40
2017-07-30T07:05:35.496Z,56.40
2017-07-30T07:08:02.408Z,56.30
2017-07-30T07:10:29.312Z,56.60
2017-07-30T07:12:56.212Z,56.30
2017-07-30T07:15:23.173Z,56.50
2017-07-30T07:17:50.065Z,56.30
2017-07-30T07:20:16.964Z,55.40
2017-07-30T07:22:43.889Z,55.10
2017-07-30T07:25:10.959Z,54.20
2017-07-30T07:27:37.911Z,54.30
2017-07-30T07:30:05.979Z,54.20
2017-07-30T07:32:34.010Z,54.20
2017-07-30T07:35:01.028Z,53.40
2017-07-30T07:37:27.941Z,54.30
2017-07-30T07:39:58.451Z,53.60
2017-07-30T07:42:29.874Z,52.80
2017-07-30T07:44:57.133Z,52.00
2017-07-30T07:47:24.975Z,51.90
2017-07-30T07:49:51.943Z,52.70
2017-07-30T07:52:18.849Z,50.60
2017-07-30T07:54:46.919Z,50.20
2017-07-30T07:57:17.947Z,50.20
2017-07-30T07:59:47.869Z,51.20
2017-07-30T08:02:14.857Z,51.10
2017-07-30T08:04:41.719Z,51.10
2017-07-30T08:07:11.417Z,51.00
2017-07-30T08:09:41.098Z,50.20
2017-07-30T08:12:16.479Z,48.00
2017-07-30T08:14:44.286Z,48.00
2017-07-30T08:17:12.139Z,45.70
2017-07-30T08:19:40.314Z,45.70
2017-07-30T08:22:07.269Z,43.90
2017-07-30T08:24:36.357Z,42.90
2017-07-30T08:27:06.203Z,40.80
2017-07-30T08:29:38.560Z,39.40
2017-07-30T08:32:08.058Z,38.10
2017-07-30T08:34:39.553Z,38.10
2017-07-30T08:37:09.924Z,37.90
2017-07-30T08:39:37.452Z,37.50
2017-07-30T08:42:06.514Z,37.70
2017-07-30T08:44:34.785Z,37.60
2017-07-30T08:47:10.183Z,37.70
2017-07-30T08:49:39.874Z,36.80
2017-07-30T08:52:09.780Z,36.60
2017-07-30T08:54:36.846Z,36.10
2017-07-30T08:57:03.717Z,35.10
2017-07-30T08:59:30.672Z,35.30
2017-07-30T09:01:57.552Z,35.00
2017-07-30T09:04:25.311Z,33.50
2017-07-30T09:06:52.184Z,33.50
2017-07-30T09:09:19.156Z,33.90
2017-07-30T09:11:46.044Z,33.70
2017-07-30T09:14:12.955Z,33.10
2017-07-30T09:16:40.373Z,34.30
2017-07-30T09:19:18.280Z,34.40
2017-07-30T09:21:46.085Z,34.90
2017-07-30T09:24:13.213Z,35.70
2017-07-30T09:26:40.307Z,35.70
2017-07-30T09:29:07.312Z,33.70
2017-07-30T09:31:34.217Z,34.00
2017-07-30T09:34:01.175Z,33.60
2017-07-30T09:36:28.194Z,33.50
2017-07-30T09:38:55.264Z,33.60
2017-07-30T09:41:22.757Z,32.90
2017-07-30T09:43:50.274Z,32.50
2017-07-30T09:46:17.976Z,31.10
2017-07-30T09:48:45.903Z,32.00
2017-07-30T09:51:13.077Z,31.90
2017-07-30T09:53:40.421Z,31.60
2017-07-30T09:56:10.180Z,31.00
2017-07-30T09:58:41.288Z,31.00
2017-07-30T10:01:10.241Z,30.80
2017-07-30T10:03:41.438Z,32.60
2017-07-30T10:06:08.566Z,32.60
2017-07-30T10:08:35.612Z,33.20
2017-07-30T10:11:03.452Z,33.10
2017-07-30T10:13:30.574Z,33.10
2017-07-30T10:15:57.658Z,33.60
2017-07-30T10:18:24.564Z,32.90
2017-07-30T10:20:51.505Z,32.20
2017-07-30T10:23:18.442Z,33.10
2017-07-30T10:25:45.328Z,33.00
2017-07-30T10:28:12.341Z,33.60
2017-07-30T10:30:40.615Z,33.80
2017-07-30T10:33:07.647Z,34.80
2017-07-30T10:38:28.091Z,35.50
2017-07-30T10:40:55.955Z,37.80
2017-07-30T10:43:29.412Z,37.70
2017-07-30T10:45:56.312Z,38.40
2017-07-30T10:48:36.958Z,38.30
2017-07-30T10:51:15.244Z,39.30
2017-07-30T10:53:44.870Z,40.00
2017-07-30T10:56:16.771Z,39.50
2017-07-30T10:58:47.636Z,39.80
2017-07-30T11:01:20.307Z,38.80
2017-07-30T11:04:00.946Z,38.80
2017-07-30T11:06:39.485Z,38.70
2017-07-30T11:09:19.031Z,37.20
2017-07-30T11:11:46.920Z,37.10
2017-07-30T11:14:21.433Z,36.30
2017-07-30T11:16:56.733Z,36.60
2017-07-30T11:19:24.873Z,36.00
2017-07-30T11:21:52.539Z,36.30
2017-07-30T11:24:30.071Z,36.10
2017-07-30T11:27:08.194Z,35.80
2017-07-30T11:29:35.644Z,35.90
2017-07-30T11:32:08.942Z,36.30
2017-07-30T11:34:35.924Z,36.70
2017-07-30T11:37:02.943Z,37.50
2017-07-30T11:39:29.924Z,38.10
2017-07-30T11:42:02.460Z,38.80
2017-07-30T11:44:36.709Z,39.00
2017-07-30T11:47:23.202Z,38.30
2017-07-30T11:49:51.908Z,37.90
2017-07-30T11:52:19.639Z,38.00
2017-07-30T11:54:47.305Z,37.90
2017-07-30T11:57:23.002Z,39.30
2017-07-30T11:59:50.680Z,39.20
2017-07-30T12:02:18.234Z,39.10
2017-07-30T12:04:45.663Z,39.80
2017-07-30T12:07:12.636Z,40.00
2017-07-30T12:09:40.333Z,39.60
2017-07-30T12:12:07.233Z,39.60
2017-07-30T12:14:34.939Z,39.30
2017-07-30T12:17:01.809Z,39.20
2017-07-30T12:19:28.751Z,39.10
2017-07-30T12:21:55.664Z,40.90
2017-07-30T12:24:22.656Z,42.80
2017-07-30T12:26:52.030Z,42.00
2017-07-30T12:29:18.984Z,41.00
2017-07-30T12:31:45.864Z,41.80
2017-07-30T12:34:12.743Z,42.60
2017-07-30T12:36:39.706Z,43.50
2017-07-30T12:39:06.601Z,43.30
2017-07-30T12:41:33.548Z,42.70
2017-07-30T12:44:00.516Z,42.50
2017-07-30T12:46:27.404Z,41.60
2017-07-30T12:48:54.404Z,41.20
2017-07-30T12:51:22.040Z,39.60
2017-07-30T12:53:48.929Z,39.60
2017-07-30T12:56:15.881Z,39.90
2017-07-30T12:58:42.780Z,39.80
2017-07-30T13:01:09.704Z,40.50
2017-07-30T13:03:36.639Z,40.40
2017-07-30T13:06:03.590Z,39.70
2017-07-30T13:08:30.493Z,40.00
2017-07-30T13:10:57.384Z,40.70
2017-07-30T13:13:24.341Z,41.10
2017-07-30T13:15:51.231Z,40.90
2017-07-30T13:18:18.204Z,41.50
2017-07-30T13:20:45.092Z,42.40
2017-07-30T13:23:11.981Z,43.20
2017-07-30T13:25:38.907Z,42.20
2017-07-30T13:28:05.847Z,43.40
2017-07-30T13:30:33.836Z,46.10
2017-07-30T13:33:00.737Z,46.00
2017-07-30T13:35:27.602Z,46.40
2017-07-30T13:37:54.540Z,47.70
2017-07-30T13:40:22.174Z,48.00
2017-07-30T13:42:49.122Z,47.80
2017-07-30T13:45:16.001Z,47.80
2017-07-30T13:47:43.621Z,48.90
2017-07-30T13:50:10.698Z,48.90
2017-07-30T13:52:37.587Z,49.50
2017-07-30T13:55:04.534Z,52.30
2017-07-30T13:57:31.443Z,53.30
2017-07-30T13:59:59.144Z,55.50
2017-07-30T14:02:26.013Z,55.50
2017-07-30T14:04:53.236Z,56.50
2017-07-30T14:07:20.116Z,56.70
2017-07-30T14:09:46.991Z,57.10
2017-07-30T14:12:13.957Z,58.10
2017-07-30T14:14:40.854Z,58.70
2017-07-30T14:17:07.726Z,58.80
2017-07-30T14:19:34.683Z,59.20
2017-07-30T14:22:02.301Z,58.70
2017-07-30T14:24:29.179Z,58.60
2017-07-30T14:26:56.228Z,58.90
2017-07-30T14:29:23.167Z,59.40
2017-07-30T14:31:50.129Z,59.50
2017-07-30T14:34:17.751Z,59.40
2017-07-30T14:36:44.696Z,59.40
2017-07-30T14:39:11.706Z,58.70
2017-07-30T14:41:38.649Z,60.20
2017-07-30T14:44:05.600Z,59.70
2017-07-30T14:46:32.555Z,60.30
2017-07-30T14:48:59.443Z,60.30
2017-07-30T14:51:26.308Z,60.20
2017-07-30T14:53:53.270Z,62.20
2017-07-30T14:56:20.866Z,60.20
2017-07-30T14:58:47.812Z,60.20
2017-07-30T15:01:14.699Z,60.20
2017-07-30T15:03:41.572Z,59.80
2017-07-30T15:06:08.559Z,58.30
2017-07-30T15:08:35.568Z,58.20
2017-07-30T15:11:02.444Z,57.90
2017-07-30T15:13:29.410Z,58.10
2017-07-30T15:15:56.360Z,57.50
2017-07-30T15:18:23.335Z,57.80
2017-07-30T15:20:50.221Z,58.30
2017-07-30T15:23:17.247Z,58.70
2017-07-30T15:25:44.139Z,57.70
2017-07-30T15:28:11.036Z,57.70
2017-07-30T15:30:38.787Z,55.70
2017-07-30T15:33:06.457Z,55.10
2017-07-30T15:35:33.478Z,55.10
2017-07-30T15:38:00.483Z,54.70
2017-07-30T15:40:27.470Z,53.90
2017-07-30T15:42:54.459Z,51.10
2017-07-30T15:45:21.351Z,52.90
2017-07-30T15:47:48.239Z,52.10
2017-07-30T15:50:15.928Z,52.30
2017-07-30T15:52:42.816Z,52.20
2017-07-30T15:55:09.776Z,52.70
2017-07-30T15:57:36.668Z,53.10
2017-07-30T16:00:03.650Z,53.10
2017-07-30T16:02:30.614Z,53.20
2017-07-30T16:04:58.275Z,53.90
2017-07-30T16:07:25.466Z,53.70
2017-07-30T16:09:52.376Z,53.20
2017-07-30T16:12:19.276Z,53.50
2017-07-30T16:14:46.255Z,54.20
2017-07-30T16:17:13.215Z,54.10
2017-07-30T16:19:40.140Z,53.60
2017-07-30T16:22:07.872Z,53.80
2017-07-30T16:24:34.786Z,52.90
2017-07-30T16:27:02.444Z,53.00
2017-07-30T16:29:30.142Z,52.30
2017-07-30T16:31:57.080Z,52.30
2017-07-30T16:34:24.148Z,52.70
2017-07-30T16:36:51.060Z,53.30
2017-07-30T16:39:18.711Z,53.80
2017-07-30T16:41:46.430Z,54.50
2017-07-30T16:44:13.359Z,54.40
2017-07-30T16:46:40.377Z,54.30
2017-07-30T16:49:07.260Z,55.10
2017-07-30T16:51:34.139Z,55.30
2017-07-30T16:54:01.113Z,54.70
2017-07-30T16:56:28.759Z,54.50
2017-07-30T16:58:55.682Z,54.50
2017-07-30T17:01:22.720Z,55.40
2017-07-30T17:03:49.675Z,55.30
2017-07-30T17:06:16.583Z,54.90
2017-07-30T17:08:43.599Z,55.50
2017-07-30T17:11:11.355Z,55.80
2017-07-30T17:13:39.054Z,56.00
2017-07-30T17:16:06.073Z,55.90
2017-07-30T17:18:33.725Z,56.20
2017-07-30T17:21:00.699Z,56.30
2017-07-30T17:23:28.402Z,55.50
2017-07-30T17:25:55.355Z,55.40
2017-07-30T17:28:22.342Z,55.50
2017-07-30T17:30:50.080Z,55.60
2017-07-30T17:33:17.000Z,55.50
2017-07-30T17:35:44.001Z,55.70
2017-07-30T17:38:11.736Z,55.20
2017-07-30T17:40:38.659Z,55.20
2017-07-30T17:43:05.733Z,55.60
2017-07-30T17:45:32.726Z,55.20
2017-07-30T17:47:59.620Z,55.30
2017-07-30T17:50:26.616Z,55.70
2017-07-30T17:52:53.512Z,55.30
2017-07-30T17:55:20.534Z,55.40
2017-07-30T17:57:47.436Z,55.80
2017-07-30T18:00:15.047Z,56.80
2017-07-30T18:02:42.019Z,56.10
2017-07-30T18:05:09.012Z,56.20
2017-07-30T18:07:35.985Z,57.00
2017-07-30T18:10:02.890Z,56.20
2017-07-30T18:12:29.901Z,55.70
2017-07-30T18:14:56.758Z,55.50
2017-07-30T18:17:23.680Z,55.10
2017-07-30T18:19:50.567Z,55.30
2017-07-30T18:22:18.313Z,56.00
2017-07-30T18:24:45.220Z,56.00
2017-07-30T18:27:12.080Z,56.40
2017-07-30T18:29:39.041Z,56.00
2017-07-30T18:32:06.001Z,56.10
2017-07-30T18:34:32.963Z,56.50
2017-07-30T18:37:00.556Z,56.30
2017-07-30T18:39:27.489Z,56.30
2017-07-30T18:41:54.432Z,56.70
2017-07-30T18:44:21.316Z,57.20
2017-07-30T18:46:48.227Z,57.00
2017-07-30T18:49:16.087Z,57.10
2017-07-30T18:51:42.958Z,57.00
2017-07-30T18:54:09.917Z,57.30
2017-07-30T18:56:36.940Z,57.30
2017-07-30T18:59:03.886Z,57.50
2017-07-30T19:01:30.832Z,57.80
2017-07-30T19:03:57.711Z,58.20
2017-07-30T19:06:24.674Z,58.20
2017-07-30T19:08:51.570Z,58.40
2017-07-30T19:11:18.448Z,58.70
2017-07-30T19:13:45.584Z,58.20
2017-07-30T19:16:12.524Z,57.90
2017-07-30T19:18:39.382Z,58.10
2017-07-30T19:21:06.327Z,57.80
2017-07-30T19:23:33.238Z,57.70
2017-07-30T19:26:00.191Z,57.80
2017-07-30T19:28:27.148Z,58.00
2017-07-30T19:30:54.170Z,57.60
2017-07-30T19:33:21.858Z,57.50
2017-07-30T19:35:48.760Z,57.50
2017-07-30T19:38:15.676Z,57.60
2017-07-30T19:40:42.700Z,57.90
2017-07-30T19:43:09.597Z,58.50
2017-07-30T19:45:36.484Z,58.40
2017-07-30T19:48:03.444Z,58.80
2017-07-30T19:50:30.375Z,58.90
2017-07-30T19:52:57.259Z,58.70
2017-07-30T19:55:24.222Z,58.20
2017-07-30T19:57:51.168Z,58.90
2017-07-30T20:00:18.043Z,59.30
2017-07-30T20:02:44.923Z,59.40
2017-07-30T20:05:11.869Z,58.90
2017-07-30T20:07:38.780Z,59.00
2017-07-30T20:10:05.782Z,59.20
2017-07-30T20:12:32.690Z,59.30
2017-07-30T20:14:59.623Z,59.50
2017-07-30T20:17:26.557Z,59.70
2017-07-30T20:19:54.284Z,60.50
2017-07-30T20:22:21.247Z,60.50
2017-07-30T20:24:48.149Z,60.60
2017-07-30T20:27:15.163Z,61.30
2017-07-30T20:29:42.783Z,61.60
2017-07-30T20:32:09.823Z,61.50
2017-07-30T20:34:36.717Z,61.20
2017-07-30T20:37:04.352Z,61.60
2017-07-30T20:39:31.297Z,61.60
2017-07-30T20:41:58.178Z,62.10
2017-07-30T20:44:25.046Z,62.70
2017-07-30T20:46:51.985Z,63.20
2017-07-30T20:49:18.886Z,63.70
2017-07-30T20:51:45.873Z,63.70
2017-07-30T20:54:12.812Z,63.40
2017-07-30T20:56:39.683Z,63.30
2017-07-30T20:59:06.604Z,63.10
2017-07-30T21:01:33.488Z,63.30
2017-07-30T21:04:00.403Z,63.50
2017-07-30T21:06:27.402Z,63.60
2017-07-30T21:08:54.287Z,63.70
2017-07-30T21:11:21.159Z,63.70
2017-07-30T21:13:48.103Z,64.20
2017-07-30T21:16:15.069Z,63.90
2017-07-30T21:18:41.978Z,63.50
2017-07-30T21:21:08.881Z,63.30
2017-07-30T21:23:35.833Z,63.20
2017-07-30T21:26:02.793Z,64.30
2017-07-30T21:28:30.472Z,64.80
2017-07-30T21:30:57.504Z,64.80
2017-07-30T21:33:25.111Z,64.90
2017-07-30T21:35:51.977Z,64.70
2017-07-30T21:38:18.919Z,65.40
2017-07-30T21:40:45.848Z,65.10
2017-07-30T21:43:12.731Z,65.00
2017-07-30T21:45:40.431Z,64.90
2017-07-30T21:48:07.316Z,64.90
2017-07-30T21:50:34.247Z,64.50
2017-07-30T21:53:01.108Z,64.20
2017-07-30T21:55:27.962Z,64.10
2017-07-30T21:57:54.915Z,64.10
2017-07-30T22:00:21.772Z,63.80
2017-07-30T22:02:49.396Z,63.70
2017-07-30T22:05:16.315Z,63.70
2017-07-30T22:07:43.217Z,63.80
2017-07-30T22:10:10.164Z,63.60
2017-07-30T22:12:37.112Z,63.60
2017-07-30T22:15:04.803Z,63.20
2017-07-30T22:17:31.671Z,63.20
2017-07-30T22:19:58.522Z,63.20
2017-07-30T22:22:25.460Z,63.00
2017-07-30T22:24:52.394Z,63.30
2017-07-30T22:27:19.343Z,63.80
2017-07-30T22:29:46.281Z,63.40
2017-07-30T22:32:13.297Z,63.90
2017-07-30T22:34:40.234Z,63.80
2017-07-30T22:37:07.087Z,64.00
2017-07-30T22:39:33.971Z,63.80
2017-07-30T22:42:00.906Z,63.90
2017-07-30T22:44:27.769Z,63.80
2017-07-30T22:46:54.704Z,63.30
2017-07-30T22:49:21.647Z,63.30
2017-07-30T22:51:48.612Z,63.40
2017-07-30T22:54:15.499Z,63.40
2017-07-30T22:56:42.377Z,63.70
2017-07-30T22:59:09.394Z,63.30
2017-07-30T23:01:36.271Z,63.40
2017-07-30T23:04:03.864Z,63.60
2017-07-30T23:06:30.802Z,63.50
2017-07-30T23:08:57.710Z,63.50
2017-07-30T23:11:25.479Z,63.40
2017-07-30T23:13:53.101Z,64.00
2017-07-30T23:16:20.043Z,63.30
2017-07-30T23:18:46.916Z,63.60
2017-07-30T23:21:14.608Z,63.10
2017-07-30T23:23:41.482Z,63.00
2017-07-30T23:26:08.410Z,63.60
2017-07-30T23:28:35.266Z,63.60
2017-07-30T23:31:02.188Z,63.70
2017-07-30T23:33:29.193Z,63.90
2017-07-30T23:35:56.141Z,63.70
2017-07-30T23:38:23.021Z,63.70
2017-07-30T23:40:49.899Z,63.80
2017-07-30T23:43:16.853Z,63.80
2017-07-30T23:45:43.727Z,64.50
2017-07-30T23:48:10.593Z,64.50
2017-07-30T23:50:38.607Z,65.10
2017-07-30T23:53:05.483Z,65.10
2017-07-30T23:55:32.364Z,65.00
2017-07-30T23:57:59.299Z,64.90
